sensor_id;sensor_type;location;lat;lon;timestamp;P1;durP1;ratioP1;P2;durP2;ratioP2
6007;SDS011;3032;49.484;11.112;2023-03-21T00:00:37;10.05;;;6.10;;
6007;SDS011;3032;49.484;11.112;2023-03-21T00:03:04;7.13;;;6.13;;
6007;SDS011;3032;49.484;11.112;2023-03-21T00:05:29;7.77;;;5.60;;
6007;SDS011;3032;49.484;11.112;2023-03-21T00:07:55;7.00;;;5.30;;
6007;SDS011;3032;49.484;11.112;2023-03-21T00:10:21;7.07;;;5.57;;
6007;SDS011;3032;49.484;11.112;2023-03-21T00:12:47;10.37;;;5.13;;
6007;SDS011;3032;49.484;11.112;2023-03-21T00:15:14;6.22;;;5.55;;
6007;SDS011;3032;49.484;11.112;2023-03-21T00:17:42;8.18;;;6.20;;
6007;SDS011;3032;49.484;11.112;2023-03-21T00:20:08;8.38;;;6.28;;
6007;SDS011;3032;49.484;11.112;2023-03-21T00:22:39;8.07;;;6.07;;
6007;SDS011;3032;49.484;11.112;2023-03-21T00:25:06;5.75;;;5.07;;
6007;SDS011;3032;49.484;11.112;2023-03-21T00:27:32;6.72;;;6.05;;
6007;SDS011;3032;49.484;11.112;2023-03-21T00:29:58;7.45;;;5.50;;
6007;SDS011;3032;49.484;11.112;2023-03-21T00:32:24;5.37;;;4.87;;
6007;SDS011;3032;49.484;11.112;2023-03-21T00:34:50;9.33;;;4.90;;
6007;SDS011;3032;49.484;11.112;2023-03-21T00:37:16;6.28;;;5.28;;
6007;SDS011;3032;49.484;11.112;2023-03-21T00:39:43;5.07;;;4.47;;
6007;SDS011;3032;49.484;11.112;2023-03-21T00:42:13;5.93;;;4.88;;
6007;SDS011;3032;49.484;11.112;2023-03-21T00:44:41;7.35;;;5.55;;
6007;SDS011;3032;49.484;11.112;2023-03-21T00:47:10;5.72;;;4.35;;
6007;SDS011;3032;49.484;11.112;2023-03-21T00:49:36;4.72;;;4.32;;
6007;SDS011;3032;49.484;11.112;2023-03-21T00:52:06;6.57;;;5.13;;
6007;SDS011;3032;49.484;11.112;2023-03-21T00:54:33;4.50;;;4.10;;
6007;SDS011;3032;49.484;11.112;2023-03-21T00:57:01;5.22;;;4.38;;
6007;SDS011;3032;49.484;11.112;2023-03-21T00:59:28;5.75;;;4.20;;
6007;SDS011;3032;49.484;11.112;2023-03-21T01:01:54;5.57;;;4.70;;
6007;SDS011;3032;49.484;11.112;2023-03-21T01:04:20;9.27;;;4.43;;
6007;SDS011;3032;49.484;11.112;2023-03-21T01:06:51;4.90;;;4.45;;
6007;SDS011;3032;49.484;11.112;2023-03-21T01:09:18;4.82;;;4.25;;
6007;SDS011;3032;49.484;11.112;2023-03-21T01:11:46;6.30;;;4.05;;
6007;SDS011;3032;49.484;11.112;2023-03-21T01:14:12;8.52;;;4.15;;
6007;SDS011;3032;49.484;11.112;2023-03-21T01:16:38;5.65;;;4.50;;
6007;SDS011;3032;49.484;11.112;2023-03-21T01:19:05;5.22;;;3.58;;
6007;SDS011;3032;49.484;11.112;2023-03-21T01:21:32;7.20;;;4.00;;
6007;SDS011;3032;49.484;11.112;2023-03-21T01:23:58;6.22;;;4.72;;
6007;SDS011;3032;49.484;11.112;2023-03-21T01:26:24;4.53;;;3.85;;
6007;SDS011;3032;49.484;11.112;2023-03-21T01:28:50;7.50;;;5.20;;
6007;SDS011;3032;49.484;11.112;2023-03-21T01:31:15;5.93;;;4.60;;
6007;SDS011;3032;49.484;11.112;2023-03-21T01:33:42;5.50;;;4.72;;
6007;SDS011;3032;49.484;11.112;2023-03-21T01:36:18;4.45;;;4.00;;
6007;SDS011;3032;49.484;11.112;2023-03-21T01:38:48;7.90;;;4.35;;
6007;SDS011;3032;49.484;11.112;2023-03-21T01:41:28;5.47;;;4.30;;
6007;SDS011;3032;49.484;11.112;2023-03-21T01:43:54;4.82;;;4.32;;
6007;SDS011;3032;49.484;11.112;2023-03-21T01:49:28;8.20;;;3.95;;
6007;SDS011;3032;49.484;11.112;2023-03-21T01:51:52;7.90;;;4.10;;
6007;SDS011;3032;49.484;11.112;2023-03-21T01:54:26;5.97;;;4.07;;
6007;SDS011;3032;49.484;11.112;2023-03-21T01:56:56;8.70;;;4.03;;
6007;SDS011;3032;49.484;11.112;2023-03-21T01:59:34;4.85;;;4.15;;
6007;SDS011;3032;49.484;11.112;2023-03-21T02:02:19;4.90;;;4.00;;
6007;SDS011;3032;49.484;11.112;2023-03-21T02:04:49;4.90;;;3.78;;
6007;SDS011;3032;49.484;11.112;2023-03-21T02:07:23;4.25;;;3.90;;
6007;SDS011;3032;49.484;11.112;2023-03-21T02:09:52;4.88;;;4.10;;
6007;SDS011;3032;49.484;11.112;2023-03-21T02:12:19;4.70;;;4.07;;
6007;SDS011;3032;49.484;11.112;2023-03-21T02:14:45;6.80;;;5.00;;
6007;SDS011;3032;49.484;11.112;2023-03-21T02:17:18;7.32;;;4.82;;
6007;SDS011;3032;49.484;11.112;2023-03-21T02:20:26;5.55;;;4.90;;
6007;SDS011;3032;49.484;11.112;2023-03-21T02:26:45;6.72;;;5.00;;
6007;SDS011;3032;49.484;11.112;2023-03-21T02:32:22;8.95;;;5.18;;
6007;SDS011;3032;49.484;11.112;2023-03-21T02:37:38;6.18;;;4.60;;
6007;SDS011;3032;49.484;11.112;2023-03-21T02:40:11;9.98;;;5.10;;
6007;SDS011;3032;49.484;11.112;2023-03-21T02:43:00;7.13;;;4.97;;
6007;SDS011;3032;49.484;11.112;2023-03-21T02:50:58;6.80;;;5.13;;
6007;SDS011;3032;49.484;11.112;2023-03-21T02:53:27;5.43;;;4.55;;
6007;SDS011;3032;49.484;11.112;2023-03-21T02:55:57;6.82;;;5.15;;
6007;SDS011;3032;49.484;11.112;2023-03-21T02:58:24;9.55;;;4.95;;
6007;SDS011;3032;49.484;11.112;2023-03-21T03:00:53;5.28;;;4.72;;
6007;SDS011;3032;49.484;11.112;2023-03-21T03:03:20;5.72;;;5.13;;
6007;SDS011;3032;49.484;11.112;2023-03-21T03:05:48;5.75;;;4.90;;
6007;SDS011;3032;49.484;11.112;2023-03-21T03:14:05;6.47;;;4.47;;
6007;SDS011;3032;49.484;11.112;2023-03-21T03:18:52;6.50;;;4.80;;
6007;SDS011;3032;49.484;11.112;2023-03-21T03:21:32;5.32;;;4.63;;
6007;SDS011;3032;49.484;11.112;2023-03-21T03:26:49;7.03;;;4.70;;
6007;SDS011;3032;49.484;11.112;2023-03-21T03:29:33;4.70;;;4.30;;
6007;SDS011;3032;49.484;11.112;2023-03-21T03:34:35;5.28;;;4.50;;
6007;SDS011;3032;49.484;11.112;2023-03-21T03:37:04;5.45;;;4.90;;
6007;SDS011;3032;49.484;11.112;2023-03-21T03:39:45;4.93;;;4.50;;
6007;SDS011;3032;49.484;11.112;2023-03-21T03:42:20;5.65;;;4.65;;
6007;SDS011;3032;49.484;11.112;2023-03-21T03:44:52;4.65;;;4.25;;
6007;SDS011;3032;49.484;11.112;2023-03-21T03:50:18;5.88;;;4.63;;
6007;SDS011;3032;49.484;11.112;2023-03-21T03:53:01;5.20;;;4.35;;
6007;SDS011;3032;49.484;11.112;2023-03-21T03:55:44;4.72;;;4.10;;
6007;SDS011;3032;49.484;11.112;2023-03-21T03:58:10;5.00;;;4.60;;
6007;SDS011;3032;49.484;11.112;2023-03-21T04:00:36;5.13;;;4.63;;
6007;SDS011;3032;49.484;11.112;2023-03-21T04:03:02;7.05;;;5.22;;
6007;SDS011;3032;49.484;11.112;2023-03-21T04:05:31;6.75;;;4.88;;
6007;SDS011;3032;49.484;11.112;2023-03-21T04:07:57;5.75;;;4.15;;
6007;SDS011;3032;49.484;11.112;2023-03-21T04:10:22;5.30;;;4.47;;
6007;SDS011;3032;49.484;11.112;2023-03-21T04:12:48;9.43;;;4.73;;
6007;SDS011;3032;49.484;11.112;2023-03-21T04:15:14;6.60;;;4.70;;
6007;SDS011;3032;49.484;11.112;2023-03-21T04:17:40;8.25;;;5.05;;
6007;SDS011;3032;49.484;11.112;2023-03-21T04:20:06;8.70;;;5.10;;
6007;SDS011;3032;49.484;11.112;2023-03-21T04:22:32;5.93;;;5.10;;
6007;SDS011;3032;49.484;11.112;2023-03-21T04:24:58;5.93;;;5.32;;
6007;SDS011;3032;49.484;11.112;2023-03-21T04:27:25;6.60;;;5.25;;
6007;SDS011;3032;49.484;11.112;2023-03-21T04:29:51;7.10;;;5.13;;
6007;SDS011;3032;49.484;11.112;2023-03-21T04:32:17;8.50;;;5.47;;
6007;SDS011;3032;49.484;11.112;2023-03-21T04:34:43;7.18;;;5.60;;
6007;SDS011;3032;49.484;11.112;2023-03-21T04:37:14;6.30;;;5.25;;
6007;SDS011;3032;49.484;11.112;2023-03-21T04:39:41;8.75;;;6.13;;
6007;SDS011;3032;49.484;11.112;2023-03-21T04:42:07;7.87;;;5.80;;
6007;SDS011;3032;49.484;11.112;2023-03-21T04:44:32;9.03;;;6.20;;
6007;SDS011;3032;49.484;11.112;2023-03-21T04:46:58;8.67;;;6.23;;
6007;SDS011;3032;49.484;11.112;2023-03-21T04:49:23;8.03;;;5.83;;
6007;SDS011;3032;49.484;11.112;2023-03-21T04:51:49;6.57;;;5.70;;
6007;SDS011;3032;49.484;11.112;2023-03-21T04:54:15;7.67;;;6.17;;
6007;SDS011;3032;49.484;11.112;2023-03-21T04:56:40;7.40;;;6.13;;
6007;SDS011;3032;49.484;11.112;2023-03-21T04:59:13;10.68;;;6.88;;
6007;SDS011;3032;49.484;11.112;2023-03-21T05:01:39;8.52;;;6.47;;
6007;SDS011;3032;49.484;11.112;2023-03-21T05:04:07;11.52;;;6.70;;
6007;SDS011;3032;49.484;11.112;2023-03-21T05:06:34;9.68;;;6.28;;
6007;SDS011;3032;49.484;11.112;2023-03-21T05:09:00;7.55;;;6.32;;
6007;SDS011;3032;49.484;11.112;2023-03-21T05:11:29;8.48;;;6.25;;
6007;SDS011;3032;49.484;11.112;2023-03-21T05:13:56;12.23;;;6.45;;
6007;SDS011;3032;49.484;11.112;2023-03-21T05:16:25;9.35;;;7.00;;
6007;SDS011;3032;49.484;11.112;2023-03-21T05:18:54;7.00;;;5.80;;
6007;SDS011;3032;49.484;11.112;2023-03-21T05:21:21;8.63;;;6.03;;
6007;SDS011;3032;49.484;11.112;2023-03-21T05:23:47;10.07;;;6.22;;
6007;SDS011;3032;49.484;11.112;2023-03-21T05:26:18;12.45;;;6.70;;
6007;SDS011;3032;49.484;11.112;2023-03-21T05:28:46;7.15;;;6.05;;
6007;SDS011;3032;49.484;11.112;2023-03-21T05:31:12;6.63;;;5.95;;
6007;SDS011;3032;49.484;11.112;2023-03-21T05:33:40;10.30;;;6.53;;
6007;SDS011;3032;49.484;11.112;2023-03-21T05:36:07;6.68;;;5.68;;
6007;SDS011;3032;49.484;11.112;2023-03-21T05:38:33;7.60;;;6.22;;
6007;SDS011;3032;49.484;11.112;2023-03-21T05:40:59;11.67;;;6.37;;
6007;SDS011;3032;49.484;11.112;2023-03-21T05:43:25;7.33;;;6.37;;
6007;SDS011;3032;49.484;11.112;2023-03-21T05:45:50;10.53;;;6.47;;
6007;SDS011;3032;49.484;11.112;2023-03-21T05:48:16;8.93;;;6.10;;
6007;SDS011;3032;49.484;11.112;2023-03-21T05:50:42;7.75;;;6.70;;
6007;SDS011;3032;49.484;11.112;2023-03-21T05:53:08;14.53;;;7.07;;
6007;SDS011;3032;49.484;11.112;2023-03-21T05:55:34;7.47;;;6.07;;
6007;SDS011;3032;49.484;11.112;2023-03-21T05:58:00;9.57;;;6.60;;
6007;SDS011;3032;49.484;11.112;2023-03-21T06:00:26;10.30;;;7.03;;
6007;SDS011;3032;49.484;11.112;2023-03-21T06:02:52;10.07;;;7.03;;
6007;SDS011;3032;49.484;11.112;2023-03-21T06:05:17;13.93;;;6.93;;
6007;SDS011;3032;49.484;11.112;2023-03-21T06:07:43;9.53;;;6.73;;
6007;SDS011;3032;49.484;11.112;2023-03-21T06:10:08;10.20;;;7.40;;
6007;SDS011;3032;49.484;11.112;2023-03-21T06:12:35;11.10;;;7.90;;
6007;SDS011;3032;49.484;11.112;2023-03-21T06:15:01;10.47;;;7.60;;
6007;SDS011;3032;49.484;11.112;2023-03-21T06:17:29;10.50;;;6.90;;
6007;SDS011;3032;49.484;11.112;2023-03-21T06:19:55;7.88;;;6.60;;
6007;SDS011;3032;49.484;11.112;2023-03-21T06:22:20;11.10;;;7.67;;
6007;SDS011;3032;49.484;11.112;2023-03-21T06:24:46;8.20;;;7.27;;
6007;SDS011;3032;49.484;11.112;2023-03-21T06:27:12;14.23;;;8.00;;
6007;SDS011;3032;49.484;11.112;2023-03-21T06:29:38;11.00;;;7.47;;
6007;SDS011;3032;49.484;11.112;2023-03-21T06:32:03;10.10;;;6.90;;
6007;SDS011;3032;49.484;11.112;2023-03-21T06:34:31;11.38;;;7.75;;
6007;SDS011;3032;49.484;11.112;2023-03-21T06:36:57;15.67;;;6.83;;
6007;SDS011;3032;49.484;11.112;2023-03-21T06:39:22;11.40;;;6.10;;
6007;SDS011;3032;49.484;11.112;2023-03-21T06:41:48;13.40;;;7.20;;
6007;SDS011;3032;49.484;11.112;2023-03-21T06:44:13;9.47;;;7.50;;
6007;SDS011;3032;49.484;11.112;2023-03-21T06:46:39;8.97;;;7.33;;
6007;SDS011;3032;49.484;11.112;2023-03-21T06:49:05;8.70;;;7.20;;
6007;SDS011;3032;49.484;11.112;2023-03-21T06:51:31;12.67;;;7.77;;
6007;SDS011;3032;49.484;11.112;2023-03-21T06:53:56;6.97;;;6.30;;
6007;SDS011;3032;49.484;11.112;2023-03-21T06:56:22;11.07;;;7.50;;
6007;SDS011;3032;49.484;11.112;2023-03-21T06:58:47;10.80;;;7.80;;
6007;SDS011;3032;49.484;11.112;2023-03-21T07:01:13;8.30;;;7.50;;
6007;SDS011;3032;49.484;11.112;2023-03-21T07:03:39;10.37;;;7.17;;
6007;SDS011;3032;49.484;11.112;2023-03-21T07:06:05;9.73;;;6.73;;
6007;SDS011;3032;49.484;11.112;2023-03-21T07:08:35;10.27;;;7.60;;
6007;SDS011;3032;49.484;11.112;2023-03-21T07:11:02;16.60;;;7.30;;
6007;SDS011;3032;49.484;11.112;2023-03-21T07:13:28;11.02;;;7.97;;
6007;SDS011;3032;49.484;11.112;2023-03-21T07:15:54;8.65;;;7.50;;
6007;SDS011;3032;49.484;11.112;2023-03-21T07:18:20;15.13;;;7.73;;
6007;SDS011;3032;49.484;11.112;2023-03-21T07:20:46;13.68;;;7.80;;
6007;SDS011;3032;49.484;11.112;2023-03-21T07:23:17;11.52;;;7.53;;
6007;SDS011;3032;49.484;11.112;2023-03-21T07:25:46;9.10;;;6.45;;
6007;SDS011;3032;49.484;11.112;2023-03-21T07:28:12;10.57;;;6.90;;
6007;SDS011;3032;49.484;11.112;2023-03-21T07:30:38;13.50;;;6.90;;
6007;SDS011;3032;49.484;11.112;2023-03-21T07:33:03;7.00;;;6.40;;
6007;SDS011;3032;49.484;11.112;2023-03-21T07:35:29;11.20;;;7.70;;
6007;SDS011;3032;49.484;11.112;2023-03-21T07:37:55;12.20;;;7.27;;
6007;SDS011;3032;49.484;11.112;2023-03-21T07:40:20;10.20;;;6.60;;
6007;SDS011;3032;49.484;11.112;2023-03-21T07:42:47;12.43;;;5.80;;
6007;SDS011;3032;49.484;11.112;2023-03-21T07:45:14;11.13;;;6.63;;
6007;SDS011;3032;49.484;11.112;2023-03-21T07:47:44;9.85;;;6.80;;
6007;SDS011;3032;49.484;11.112;2023-03-21T07:50:10;12.03;;;7.47;;
6007;SDS011;3032;49.484;11.112;2023-03-21T07:52:36;10.60;;;7.20;;
6007;SDS011;3032;49.484;11.112;2023-03-21T07:55:02;12.53;;;7.30;;
6007;SDS011;3032;49.484;11.112;2023-03-21T07:57:27;9.67;;;6.47;;
6007;SDS011;3032;49.484;11.112;2023-03-21T07:59:53;11.13;;;7.07;;
6007;SDS011;3032;49.484;11.112;2023-03-21T08:02:18;9.37;;;6.80;;
6007;SDS011;3032;49.484;11.112;2023-03-21T08:04:44;8.57;;;6.37;;
6007;SDS011;3032;49.484;11.112;2023-03-21T08:07:10;9.33;;;5.87;;
6007;SDS011;3032;49.484;11.112;2023-03-21T08:09:36;9.82;;;6.53;;
6007;SDS011;3032;49.484;11.112;2023-03-21T08:12:02;8.57;;;5.10;;
6007;SDS011;3032;49.484;11.112;2023-03-21T08:14:28;6.57;;;5.20;;
6007;SDS011;3032;49.484;11.112;2023-03-21T08:16:54;7.97;;;5.70;;
6007;SDS011;3032;49.484;11.112;2023-03-21T08:19:20;7.30;;;5.70;;
6007;SDS011;3032;49.484;11.112;2023-03-21T08:21:48;6.97;;;5.37;;
6007;SDS011;3032;49.484;11.112;2023-03-21T08:24:15;7.78;;;5.00;;
6007;SDS011;3032;49.484;11.112;2023-03-21T08:26:40;7.67;;;5.60;;
6007;SDS011;3032;49.484;11.112;2023-03-21T08:29:07;7.22;;;5.75;;
6007;SDS011;3032;49.484;11.112;2023-03-21T08:31:33;9.47;;;5.80;;
6007;SDS011;3032;49.484;11.112;2023-03-21T08:33:58;6.70;;;5.50;;
6007;SDS011;3032;49.484;11.112;2023-03-21T08:36:24;7.30;;;5.20;;
6007;SDS011;3032;49.484;11.112;2023-03-21T08:38:50;7.83;;;5.40;;
6007;SDS011;3032;49.484;11.112;2023-03-21T08:41:20;7.32;;;4.60;;
6007;SDS011;3032;49.484;11.112;2023-03-21T08:43:46;6.93;;;4.67;;
6007;SDS011;3032;49.484;11.112;2023-03-21T08:46:12;6.25;;;4.70;;
6007;SDS011;3032;49.484;11.112;2023-03-21T08:48:38;7.00;;;4.30;;
6007;SDS011;3032;49.484;11.112;2023-03-21T08:51:04;5.20;;;4.50;;
6007;SDS011;3032;49.484;11.112;2023-03-21T08:53:30;7.50;;;4.63;;
6007;SDS011;3032;49.484;11.112;2023-03-21T08:55:57;7.75;;;4.55;;
6007;SDS011;3032;49.484;11.112;2023-03-21T08:58:23;5.23;;;4.60;;
6007;SDS011;3032;49.484;11.112;2023-03-21T09:00:48;5.90;;;4.03;;
6007;SDS011;3032;49.484;11.112;2023-03-21T09:03:15;4.75;;;3.20;;
6007;SDS011;3032;49.484;11.112;2023-03-21T09:05:40;5.30;;;3.70;;
6007;SDS011;3032;49.484;11.112;2023-03-21T09:08:09;4.85;;;3.65;;
6007;SDS011;3032;49.484;11.112;2023-03-21T09:10:37;4.30;;;3.55;;
6007;SDS011;3032;49.484;11.112;2023-03-21T09:13:02;6.47;;;3.73;;
6007;SDS011;3032;49.484;11.112;2023-03-21T09:15:28;4.97;;;4.00;;
6007;SDS011;3032;49.484;11.112;2023-03-21T09:17:54;4.27;;;3.87;;
6007;SDS011;3032;49.484;11.112;2023-03-21T09:20:22;6.72;;;3.70;;
6007;SDS011;3032;49.484;11.112;2023-03-21T09:22:54;8.20;;;3.50;;
6007;SDS011;3032;49.484;11.112;2023-03-21T09:25:20;5.20;;;4.63;;
6007;SDS011;3032;49.484;11.112;2023-03-21T09:27:47;6.00;;;3.72;;
6007;SDS011;3032;49.484;11.112;2023-03-21T09:30:17;5.20;;;3.80;;
6007;SDS011;3032;49.484;11.112;2023-03-21T09:32:44;4.55;;;4.13;;
6007;SDS011;3032;49.484;11.112;2023-03-21T09:35:12;4.50;;;3.72;;
6007;SDS011;3032;49.484;11.112;2023-03-21T09:37:40;4.05;;;3.58;;
6007;SDS011;3032;49.484;11.112;2023-03-21T09:40:09;4.25;;;3.80;;
6007;SDS011;3032;49.484;11.112;2023-03-21T09:45:28;7.63;;;3.80;;
6007;SDS011;3032;49.484;11.112;2023-03-21T09:48:01;3.72;;;3.40;;
6007;SDS011;3032;49.484;11.112;2023-03-21T09:50:34;6.50;;;4.50;;
6007;SDS011;3032;49.484;11.112;2023-03-21T09:53:03;4.82;;;4.10;;
6007;SDS011;3032;49.484;11.112;2023-03-21T09:55:35;5.45;;;4.50;;
6007;SDS011;3032;49.484;11.112;2023-03-21T09:58:04;3.85;;;3.55;;
6007;SDS011;3032;49.484;11.112;2023-03-21T10:00:33;5.75;;;3.40;;
6007;SDS011;3032;49.484;11.112;2023-03-21T10:03:02;4.55;;;3.70;;
6007;SDS011;3032;49.484;11.112;2023-03-21T10:05:31;4.07;;;3.35;;
6007;SDS011;3032;49.484;11.112;2023-03-21T10:10:44;5.53;;;4.20;;
6007;SDS011;3032;49.484;11.112;2023-03-21T10:13:18;4.10;;;3.80;;
6007;SDS011;3032;49.484;11.112;2023-03-21T10:15:48;7.15;;;3.90;;
6007;SDS011;3032;49.484;11.112;2023-03-21T10:18:21;9.33;;;4.10;;
6007;SDS011;3032;49.484;11.112;2023-03-21T10:20:50;4.80;;;4.40;;
6007;SDS011;3032;49.484;11.112;2023-03-21T10:23:17;6.65;;;4.22;;
6007;SDS011;3032;49.484;11.112;2023-03-21T10:25:45;5.45;;;4.00;;
6007;SDS011;3032;49.484;11.112;2023-03-21T10:28:21;4.60;;;4.15;;
6007;SDS011;3032;49.484;11.112;2023-03-21T10:33:25;4.65;;;3.90;;
6007;SDS011;3032;49.484;11.112;2023-03-21T10:36:01;4.95;;;3.60;;
6007;SDS011;3032;49.484;11.112;2023-03-21T10:38:30;3.97;;;3.67;;
6007;SDS011;3032;49.484;11.112;2023-03-21T10:40:56;3.50;;;2.60;;
6007;SDS011;3032;49.484;11.112;2023-03-21T10:45:58;3.92;;;3.00;;
6007;SDS011;3032;49.484;11.112;2023-03-21T10:48:33;2.95;;;2.75;;
6007;SDS011;3032;49.484;11.112;2023-03-21T10:51:01;5.13;;;3.50;;
6007;SDS011;3032;49.484;11.112;2023-03-21T10:53:31;3.38;;;3.10;;
6007;SDS011;3032;49.484;11.112;2023-03-21T10:55:59;5.75;;;3.20;;
6007;SDS011;3032;49.484;11.112;2023-03-21T10:58:28;5.05;;;3.90;;
6007;SDS011;3032;49.484;11.112;2023-03-21T11:00:57;3.95;;;3.13;;
6007;SDS011;3032;49.484;11.112;2023-03-21T11:03:27;5.43;;;3.83;;
6007;SDS011;3032;49.484;11.112;2023-03-21T11:05:59;4.25;;;3.42;;
6007;SDS011;3032;49.484;11.112;2023-03-21T11:08:45;4.22;;;3.92;;
6007;SDS011;3032;49.484;11.112;2023-03-21T11:11:18;3.85;;;3.55;;
6007;SDS011;3032;49.484;11.112;2023-03-21T11:14:06;3.80;;;3.50;;
6007;SDS011;3032;49.484;11.112;2023-03-21T11:16:47;3.70;;;3.45;;
6007;SDS011;3032;49.484;11.112;2023-03-21T11:19:14;3.50;;;3.30;;
6007;SDS011;3032;49.484;11.112;2023-03-21T11:21:49;3.08;;;2.85;;
6007;SDS011;3032;49.484;11.112;2023-03-21T11:24:15;3.03;;;2.83;;
6007;SDS011;3032;49.484;11.112;2023-03-21T11:26:46;4.00;;;3.30;;
6007;SDS011;3032;49.484;11.112;2023-03-21T11:31:59;4.22;;;3.83;;
6007;SDS011;3032;49.484;11.112;2023-03-21T11:34:37;3.75;;;3.45;;
6007;SDS011;3032;49.484;11.112;2023-03-21T11:42:56;5.07;;;4.45;;
6007;SDS011;3032;49.484;11.112;2023-03-21T11:45:27;4.75;;;4.35;;
6007;SDS011;3032;49.484;11.112;2023-03-21T11:47:58;5.80;;;5.20;;
6007;SDS011;3032;49.484;11.112;2023-03-21T11:50:26;6.13;;;3.78;;
6007;SDS011;3032;49.484;11.112;2023-03-21T11:58:36;5.00;;;4.35;;
6007;SDS011;3032;49.484;11.112;2023-03-21T12:01:12;5.10;;;4.60;;
6007;SDS011;3032;49.484;11.112;2023-03-21T12:03:53;4.68;;;4.25;;
6007;SDS011;3032;49.484;11.112;2023-03-21T12:06:21;4.93;;;4.45;;
6007;SDS011;3032;49.484;11.112;2023-03-21T12:12:02;4.95;;;4.55;;
6007;SDS011;3032;49.484;11.112;2023-03-21T12:17:59;5.25;;;4.85;;
6007;SDS011;3032;49.484;11.112;2023-03-21T12:20:31;4.43;;;4.13;;
6007;SDS011;3032;49.484;11.112;2023-03-21T12:23:07;5.25;;;4.68;;
6007;SDS011;3032;49.484;11.112;2023-03-21T12:25:53;7.13;;;5.20;;
6007;SDS011;3032;49.484;11.112;2023-03-21T12:28:37;5.40;;;4.90;;
6007;SDS011;3032;49.484;11.112;2023-03-21T12:31:41;5.85;;;5.28;;
6007;SDS011;3032;49.484;11.112;2023-03-21T12:40:21;9.52;;;5.88;;
6007;SDS011;3032;49.484;11.112;2023-03-21T12:43:01;9.68;;;5.88;;
6007;SDS011;3032;49.484;11.112;2023-03-21T12:45:31;7.00;;;4.63;;
6007;SDS011;3032;49.484;11.112;2023-03-21T12:48:13;5.20;;;4.80;;
6007;SDS011;3032;49.484;11.112;2023-03-21T12:50:40;6.07;;;5.15;;
6007;SDS011;3032;49.484;11.112;2023-03-21T12:56:00;5.10;;;4.57;;
6007;SDS011;3032;49.484;11.112;2023-03-21T12:58:33;4.07;;;3.88;;
6007;SDS011;3032;49.484;11.112;2023-03-21T13:01:18;5.47;;;4.70;;
6007;SDS011;3032;49.484;11.112;2023-03-21T13:06:50;7.63;;;4.32;;
6007;SDS011;3032;49.484;11.112;2023-03-21T13:09:23;3.92;;;3.63;;
6007;SDS011;3032;49.484;11.112;2023-03-21T13:12:01;4.28;;;3.60;;
6007;SDS011;3032;49.484;11.112;2023-03-21T13:14:47;5.40;;;4.90;;
6007;SDS011;3032;49.484;11.112;2023-03-21T13:17:26;5.45;;;3.90;;
6007;SDS011;3032;49.484;11.112;2023-03-21T13:20:33;4.35;;;3.95;;
6007;SDS011;3032;49.484;11.112;2023-03-21T13:22:54;4.70;;;3.75;;
6007;SDS011;3032;49.484;11.112;2023-03-21T13:25:20;11.20;;;4.00;;
6007;SDS011;3032;49.484;11.112;2023-03-21T13:27:52;5.35;;;3.75;;
6007;SDS011;3032;49.484;11.112;2023-03-21T13:32:48;3.92;;;3.60;;
6007;SDS011;3032;49.484;11.112;2023-03-21T13:40:44;5.88;;;4.53;;
6007;SDS011;3032;49.484;11.112;2023-03-21T13:46:11;3.83;;;3.53;;
6007;SDS011;3032;49.484;11.112;2023-03-21T13:54:00;4.40;;;4.00;;
6007;SDS011;3032;49.484;11.112;2023-03-21T13:56:47;5.20;;;3.45;;
6007;SDS011;3032;49.484;11.112;2023-03-21T13:59:18;5.53;;;3.83;;
6007;SDS011;3032;49.484;11.112;2023-03-21T14:01:57;3.42;;;3.10;;
6007;SDS011;3032;49.484;11.112;2023-03-21T14:04:25;3.17;;;2.97;;
6007;SDS011;3032;49.484;11.112;2023-03-21T14:06:54;3.80;;;2.90;;
6007;SDS011;3032;49.484;11.112;2023-03-21T14:09:37;4.05;;;2.22;;
6007;SDS011;3032;49.484;11.112;2023-03-21T14:12:07;2.72;;;2.53;;
6007;SDS011;3032;49.484;11.112;2023-03-21T14:14:42;2.85;;;2.50;;
6007;SDS011;3032;49.484;11.112;2023-03-21T14:17:11;2.97;;;2.78;;
6007;SDS011;3032;49.484;11.112;2023-03-21T14:19:50;2.67;;;2.47;;
6007;SDS011;3032;49.484;11.112;2023-03-21T14:22:20;4.35;;;2.60;;
6007;SDS011;3032;49.484;11.112;2023-03-21T14:25:06;2.33;;;1.83;;
6007;SDS011;3032;49.484;11.112;2023-03-21T14:27:37;1.95;;;1.83;;
6007;SDS011;3032;49.484;11.112;2023-03-21T14:30:09;2.60;;;2.38;;
6007;SDS011;3032;49.484;11.112;2023-03-21T14:32:43;4.30;;;2.22;;
6007;SDS011;3032;49.484;11.112;2023-03-21T14:35:11;6.03;;;2.20;;
6007;SDS011;3032;49.484;11.112;2023-03-21T14:37:38;2.40;;;1.88;;
6007;SDS011;3032;49.484;11.112;2023-03-21T14:40:07;2.00;;;1.90;;
6007;SDS011;3032;49.484;11.112;2023-03-21T14:42:48;2.47;;;2.28;;
6007;SDS011;3032;49.484;11.112;2023-03-21T14:45:25;2.40;;;2.20;;
6007;SDS011;3032;49.484;11.112;2023-03-21T14:47:55;6.78;;;2.30;;
6007;SDS011;3032;49.484;11.112;2023-03-21T14:50:23;2.05;;;1.95;;
6007;SDS011;3032;49.484;11.112;2023-03-21T14:53:32;3.83;;;2.10;;
6007;SDS011;3032;49.484;11.112;2023-03-21T14:56:11;2.50;;;1.90;;
6007;SDS011;3032;49.484;11.112;2023-03-21T14:58:44;2.83;;;2.63;;
6007;SDS011;3032;49.484;11.112;2023-03-21T15:01:27;2.05;;;1.85;;
6007;SDS011;3032;49.484;11.112;2023-03-21T15:03:56;2.28;;;2.08;;
6007;SDS011;3032;49.484;11.112;2023-03-21T15:06:23;2.45;;;2.00;;
6007;SDS011;3032;49.484;11.112;2023-03-21T15:08:53;2.03;;;1.90;;
6007;SDS011;3032;49.484;11.112;2023-03-21T15:11:19;2.20;;;2.10;;
6007;SDS011;3032;49.484;11.112;2023-03-21T15:13:57;1.60;;;1.50;;
6007;SDS011;3032;49.484;11.112;2023-03-21T15:16:26;1.80;;;1.70;;
6007;SDS011;3032;49.484;11.112;2023-03-21T15:18:53;3.20;;;2.10;;
6007;SDS011;3032;49.484;11.112;2023-03-21T15:21:24;2.70;;;2.10;;
6007;SDS011;3032;49.484;11.112;2023-03-21T15:23:55;2.20;;;2.00;;
6007;SDS011;3032;49.484;11.112;2023-03-21T15:26:27;2.45;;;1.60;;
6007;SDS011;3032;49.484;11.112;2023-03-21T15:28:58;1.92;;;1.70;;
6007;SDS011;3032;49.484;11.112;2023-03-21T15:31:27;2.08;;;1.98;;
6007;SDS011;3032;49.484;11.112;2023-03-21T15:33:55;2.55;;;2.15;;
6007;SDS011;3032;49.484;11.112;2023-03-21T15:36:22;2.60;;;2.40;;
6007;SDS011;3032;49.484;11.112;2023-03-21T15:38:51;2.30;;;2.10;;
6007;SDS011;3032;49.484;11.112;2023-03-21T15:43:43;2.73;;;2.30;;
6007;SDS011;3032;49.484;11.112;2023-03-21T15:46:17;2.55;;;2.35;;
6007;SDS011;3032;49.484;11.112;2023-03-21T15:49:56;2.25;;;2.15;;
6007;SDS011;3032;49.484;11.112;2023-03-21T15:52:12;2.40;;;2.20;;
6007;SDS011;3032;49.484;11.112;2023-03-21T15:54:43;2.38;;;2.17;;
6007;SDS011;3032;49.484;11.112;2023-03-21T15:57:18;2.60;;;2.00;;
6007;SDS011;3032;49.484;11.112;2023-03-21T15:59:49;2.72;;;2.53;;
6007;SDS011;3032;49.484;11.112;2023-03-21T16:02:20;1.83;;;1.73;;
6007;SDS011;3032;49.484;11.112;2023-03-21T16:04:58;2.15;;;1.80;;
6007;SDS011;3032;49.484;11.112;2023-03-21T16:07:26;1.98;;;1.77;;
6007;SDS011;3032;49.484;11.112;2023-03-21T16:09:59;3.55;;;2.10;;
6007;SDS011;3032;49.484;11.112;2023-03-21T16:12:28;3.72;;;2.38;;
6007;SDS011;3032;49.484;11.112;2023-03-21T16:14:54;4.10;;;2.70;;
6007;SDS011;3032;49.484;11.112;2023-03-21T16:17:31;4.23;;;3.20;;
6007;SDS011;3032;49.484;11.112;2023-03-21T16:20:01;2.58;;;2.45;;
6007;SDS011;3032;49.484;11.112;2023-03-21T16:22:30;4.15;;;2.58;;
6007;SDS011;3032;49.484;11.112;2023-03-21T16:24:58;2.30;;;2.10;;
6007;SDS011;3032;49.484;11.112;2023-03-21T16:27:24;2.10;;;1.93;;
6007;SDS011;3032;49.484;11.112;2023-03-21T16:29:50;2.37;;;2.10;;
6007;SDS011;3032;49.484;11.112;2023-03-21T16:32:16;7.83;;;2.47;;
6007;SDS011;3032;49.484;11.112;2023-03-21T16:34:42;2.65;;;2.45;;
6007;SDS011;3032;49.484;11.112;2023-03-21T16:37:09;5.63;;;1.95;;
6007;SDS011;3032;49.484;11.112;2023-03-21T16:39:35;3.40;;;2.63;;
6007;SDS011;3032;49.484;11.112;2023-03-21T16:42:01;3.67;;;2.77;;
6007;SDS011;3032;49.484;11.112;2023-03-21T16:44:26;2.40;;;2.20;;
6007;SDS011;3032;49.484;11.112;2023-03-21T16:46:52;3.87;;;2.10;;
6007;SDS011;3032;49.484;11.112;2023-03-21T16:49:19;4.30;;;2.40;;
6007;SDS011;3032;49.484;11.112;2023-03-21T16:51:50;4.28;;;2.15;;